Time;durP1;ratioP1;P1;durP2;ratioP2;P2;SDS_P1;SDS_P2;PMS_P1;PMS_P2;Temp;Humidity;BMP_temperature;BMP_pressure;BME280_temperature;BME280_humidity;BME280_pressure;Samples;Min_cycle;Max_cycle;Signal;HPM_P1;HPM_P2
2019/11/27 00:00:24;;;;;;;25.55;19.85;;;;;;;2.72;98.5498;93894.98;;;;
2019/11/27 00:01:25;;;;;;;25.55;19.85;;;;;;;2.72;98.5498;93894.98;;;;
2019/11/27 00:02:27;;;;;;;25.55;19.85;;;;;;;2.72;98.5498;93894.98;;;;
2019/11/27 00:03:28;;;;;;;25.55;19.85;;;;;;;2.72;98.5498;93894.98;;;;
2019/11/27 00:04:29;;;;;;;25.55;19.85;;;;;;;2.72;98.5498;93894.98;;;;
2019/11/27 00:05:30;;;;;;;25.55;19.85;;;;;;;2.72;98.5498;93894.98;;;;
2019/11/27 00:06:31;;;;;;;27.25;19.1;;;;;;;2.71;98.68359;93859.55;;;;
2019/11/27 00:07:32;;;;;;;27.25;19.1;;;;;;;2.71;98.68359;93859.55;;;;
2019/11/27 00:08:34;;;;;;;27.25;19.1;;;;;;;2.71;98.68359;93859.55;;;;
2019/11/27 00:09:35;;;;;;;27.25;19.1;;;;;;;2.71;98.68359;93859.55;;;;
2019/11/27 00:10:36;;;;;;;27.25;19.1;;;;;;;2.71;98.68359;93859.55;;;;
2019/11/27 00:11:37;;;;;;;27.25;19.1;;;;;;;2.71;98.68359;93859.55;;;;
2019/11/27 00:12:39;;;;;;;27.25;19.1;;;;;;;2.71;98.68359;93859.55;;;;
2019/11/27 00:14:11;;;;;;;27.25;19.1;;;;;;;2.71;98.68359;93859.55;;;;
2019/11/27 00:15:13;;;;;;;27.25;19.1;;;;;;;2.71;98.68359;93859.55;;;;
2019/11/27 00:17:19;;;;;;;28.70001;19.7;;;;;;;2.69;98.64746;93814.17;;;;
2019/11/27 00:18:20;;;;;;;28.70001;19.7;;;;;;;2.69;98.64746;93814.17;;;;
2019/11/27 00:19:22;;;;;;;28.70001;19.7;;;;;;;2.69;98.64746;93814.17;;;;
2019/11/27 00:20:23;;;;;;;28.70001;19.7;;;;;;;2.69;98.64746;93814.17;;;;
2019/11/27 00:21:24;;;;;;;28.70001;19.7;;;;;;;2.69;98.64746;93814.17;;;;
2019/11/27 00:22:26;;;;;;;28.70001;19.7;;;;;;;2.69;98.64746;93814.17;;;;
2019/11/27 00:23:27;;;;;;;28.70001;19.7;;;;;;;2.69;98.64746;93814.17;;;;
2019/11/27 00:24:28;;;;;;;28.70001;19.7;;;;;;;2.69;98.64746;93814.17;;;;
2019/11/27 00:25:29;;;;;;;28.70001;19.7;;;;;;;2.69;98.64746;93814.17;;;;
2019/11/27 00:26:30;;;;;;;28.70001;19.7;;;;;;;2.69;98.64746;93814.17;;;;
2019/11/27 00:27:32;;;;;;;25.9;20.4;;;;;;;2.73;98.88574;93797.11;;;;
2019/11/27 00:28:58;;;;;;;25.9;20.4;;;;;;;2.73;98.88574;93797.11;;;;
2019/11/27 00:30:01;;;;;;;25.9;20.4;;;;;;;2.73;98.88574;93797.11;;;;
2019/11/27 00:31:02;;;;;;;25.9;20.4;;;;;;;2.73;98.88574;93797.11;;;;
2019/11/27 00:32:04;;;;;;;25.9;20.4;;;;;;;2.73;98.88574;93797.11;;;;
2019/11/27 00:33:15;;;;;;;25.9;20.4;;;;;;;2.73;98.88574;93797.11;;;;
2019/11/27 00:35:25;;;;;;;25.9;20.4;;;;;;;2.73;98.88574;93797.11;;;;
2019/11/27 00:40:12;;;;;;;28.2;21.1;;;;;;;2.69;98.99219;93753.7;;;;
2019/11/27 00:41:20;;;;;;;28.2;21.1;;;;;;;2.69;98.99219;93753.7;;;;
2019/11/27 00:42:21;;;;;;;28.2;21.1;;;;;;;2.69;98.99219;93753.7;;;;
2019/11/27 00:43:22;;;;;;;28.2;21.1;;;;;;;2.69;98.99219;93753.7;;;;
2019/11/27 00:44:23;;;;;;;28.2;21.1;;;;;;;2.69;98.99219;93753.7;;;;
2019/11/27 00:45:25;;;;;;;28.2;21.1;;;;;;;2.69;98.99219;93753.7;;;;
2019/11/27 00:46:26;;;;;;;28.2;21.1;;;;;;;2.69;98.99219;93753.7;;;;
2019/11/27 00:47:27;;;;;;;28.2;21.1;;;;;;;2.69;98.99219;93753.7;;;;
2019/11/27 00:48:28;;;;;;;28.2;21.1;;;;;;;2.69;98.99219;93753.7;;;;
2019/11/27 00:49:29;;;;;;;25.55;20.15;;;;;;;2.74;99.27344;93735.28;;;;
2019/11/27 00:50:30;;;;;;;25.55;20.15;;;;;;;2.74;99.27344;93735.28;;;;
2019/11/27 00:51:35;;;;;;;25.55;20.15;;;;;;;2.74;99.27344;93735.28;;;;
2019/11/27 00:52:36;;;;;;;25.55;20.15;;;;;;;2.74;99.27344;93735.28;;;;
2019/11/27 00:53:37;;;;;;;25.55;20.15;;;;;;;2.74;99.27344;93735.28;;;;
2019/11/27 00:54:38;;;;;;;25.55;20.15;;;;;;;2.74;99.27344;93735.28;;;;
2019/11/27 00:55:39;;;;;;;25.55;20.15;;;;;;;2.74;99.27344;93735.28;;;;
2019/11/27 00:56:42;;;;;;;25.55;20.15;;;;;;;2.74;99.27344;93735.28;;;;
2019/11/27 00:57:43;;;;;;;25.55;20.15;;;;;;;2.74;99.27344;93735.28;;;;
2019/11/27 00:58:44;;;;;;;25.55;20.15;;;;;;;2.74;99.27344;93735.28;;;;
2019/11/27 00:59:45;;;;;;;22.25;18.7;;;;;;;2.68;99.20898;93733.54;;;;
2019/11/27 01:00:46;;;;;;;22.25;18.7;;;;;;;2.68;99.20898;93733.54;;;;
2019/11/27 01:01:47;;;;;;;22.25;18.7;;;;;;;2.68;99.20898;93733.54;;;;
2019/11/27 01:02:49;;;;;;;22.25;18.7;;;;;;;2.68;99.20898;93733.54;;;;
2019/11/27 01:03:52;;;;;;;22.25;18.7;;;;;;;2.68;99.20898;93733.54;;;;
2019/11/27 01:04:53;;;;;;;22.25;18.7;;;;;;;2.68;99.20898;93733.54;;;;
2019/11/27 01:05:54;;;;;;;22.25;18.7;;;;;;;2.68;99.20898;93733.54;;;;
2019/11/27 01:07:00;;;;;;;22.25;18.7;;;;;;;2.68;99.20898;93733.54;;;;
2019/11/27 01:08:01;;;;;;;22.25;18.7;;;;;;;2.68;99.20898;93733.54;;;;
2019/11/27 01:09:02;;;;;;;22.25;18.7;;;;;;;2.68;99.20898;93733.54;;;;
2019/11/27 01:10:13;;;;;;;20.45;16.95;;;;;;;2.68;99.45898;93753.94;;;;
2019/11/27 01:11:14;;;;;;;20.45;16.95;;;;;;;2.68;99.45898;93753.94;;;;
2019/11/27 01:12:18;;;;;;;20.45;16.95;;;;;;;2.68;99.45898;93753.94;;;;
2019/11/27 01:13:19;;;;;;;20.45;16.95;;;;;;;2.68;99.45898;93753.94;;;;
2019/11/27 01:14:21;;;;;;;20.45;16.95;;;;;;;2.68;99.45898;93753.94;;;;
2019/11/27 01:15:22;;;;;;;20.45;16.95;;;;;;;2.68;99.45898;93753.94;;;;
2019/11/27 01:16:23;;;;;;;20.45;16.95;;;;;;;2.68;99.45898;93753.94;;;;
2019/11/27 01:17:25;;;;;;;20.45;16.95;;;;;;;2.68;99.45898;93753.94;;;;
2019/11/27 01:18:26;;;;;;;20.45;16.95;;;;;;;2.68;99.45898;93753.94;;;;
2019/11/27 01:19:27;;;;;;;20.45;16.95;;;;;;;2.68;99.45898;93753.94;;;;
2019/11/27 01:20:28;;;;;;;20.45;16.95;;;;;;;2.68;99.45898;93753.94;;;;
2019/11/27 01:21:29;;;;;;;21.8;18.4;;;;;;;2.66;99.44434;93748.42;;;;
2019/11/27 01:22:30;;;;;;;21.8;18.4;;;;;;;2.66;99.44434;93748.42;;;;
2019/11/27 01:23:31;;;;;;;21.8;18.4;;;;;;;2.66;99.44434;93748.42;;;;
2019/11/27 01:24:55;;;;;;;21.8;18.4;;;;;;;2.66;99.44434;93748.42;;;;
2019/11/27 01:25:56;;;;;;;21.8;18.4;;;;;;;2.66;99.44434;93748.42;;;;
2019/11/27 01:26:57;;;;;;;21.8;18.4;;;;;;;2.66;99.44434;93748.42;;;;
2019/11/27 01:27:58;;;;;;;21.8;18.4;;;;;;;2.66;99.44434;93748.42;;;;
2019/11/27 01:29:00;;;;;;;21.8;18.4;;;;;;;2.66;99.44434;93748.42;;;;
2019/11/27 01:30:01;;;;;;;21.8;18.4;;;;;;;2.66;99.44434;93748.42;;;;
2019/11/27 01:31:02;;;;;;;21.8;18.4;;;;;;;2.66;99.44434;93748.42;;;;
2019/11/27 01:32:04;;;;;;;19.9;17.15;;;;;;;2.64;99.72168;93716.27;;;;
2019/11/27 01:33:05;;;;;;;19.9;17.15;;;;;;;2.64;99.72168;93716.27;;;;
2019/11/27 01:34:06;;;;;;;19.9;17.15;;;;;;;2.64;99.72168;93716.27;;;;
2019/11/27 01:35:10;;;;;;;19.9;17.15;;;;;;;2.64;99.72168;93716.27;;;;
2019/11/27 01:36:11;;;;;;;19.9;17.15;;;;;;;2.64;99.72168;93716.27;;;;
2019/11/27 01:37:13;;;;;;;19.9;17.15;;;;;;;2.64;99.72168;93716.27;;;;
2019/11/27 01:38:14;;;;;;;19.9;17.15;;;;;;;2.64;99.72168;93716.27;;;;
2019/11/27 01:39:15;;;;;;;19.9;17.15;;;;;;;2.64;99.72168;93716.27;;;;
2019/11/27 01:40:19;;;;;;;19.9;17.15;;;;;;;2.64;99.72168;93716.27;;;;
2019/11/27 01:42:27;;;;;;;22.7;18.35;;;;;;;2.71;99.77832;93686.35;;;;
2019/11/27 01:43:28;;;;;;;22.7;18.35;;;;;;;2.71;99.77832;93686.35;;;;
2019/11/27 01:44:29;;;;;;;22.7;18.35;;;;;;;2.71;99.77832;93686.35;;;;
2019/11/27 01:45:30;;;;;;;22.7;18.35;;;;;;;2.71;99.77832;93686.35;;;;
2019/11/27 01:46:31;;;;;;;22.7;18.35;;;;;;;2.71;99.77832;93686.35;;;;
2019/11/27 01:47:33;;;;;;;22.7;18.35;;;;;;;2.71;99.77832;93686.35;;;;
2019/11/27 01:48:34;;;;;;;22.7;18.35;;;;;;;2.71;99.77832;93686.35;;;;
2019/11/27 01:49:35;;;;;;;22.7;18.35;;;;;;;2.71;99.77832;93686.35;;;;
2019/11/27 01:50:36;;;;;;;22.7;18.35;;;;;;;2.71;99.77832;93686.35;;;;
2019/11/27 01:51:37;;;;;;;22.7;18.35;;;;;;;2.71;99.77832;93686.35;;;;
2019/11/27 01:52:41;;;;;;;25.45;20.35;;;;;;;2.78;99.86816;93676;;;;
2019/11/27 01:53:42;;;;;;;25.45;20.35;;;;;;;2.78;99.86816;93676;;;;
2019/11/27 01:54:43;;;;;;;25.45;20.35;;;;;;;2.78;99.86816;93676;;;;
2019/11/27 01:55:44;;;;;;;25.45;20.35;;;;;;;2.78;99.86816;93676;;;;
2019/11/27 01:56:45;;;;;;;25.45;20.35;;;;;;;2.78;99.86816;93676;;;;
2019/11/27 01:57:47;;;;;;;25.45;20.35;;;;;;;2.78;99.86816;93676;;;;
2019/11/27 01:58:48;;;;;;;25.45;20.35;;;;;;;2.78;99.86816;93676;;;;
2019/11/27 01:59:49;;;;;;;25.45;20.35;;;;;;;2.78;99.86816;93676;;;;
2019/11/27 02:00:50;;;;;;;25.45;20.35;;;;;;;2.78;99.86816;93676;;;;
2019/11/27 02:01:52;;;;;;;25.45;20.35;;;;;;;2.78;99.86816;93676;;;;
2019/11/27 02:02:53;;;;;;;25.45;20.35;;;;;;;2.78;99.86816;93676;;;;
2019/11/27 02:03:54;;;;;;;21.5;18;;;;;;;2.84;100;93652.95;;;;
2019/11/27 02:04:55;;;;;;;21.5;18;;;;;;;2.84;100;93652.95;;;;
2019/11/27 02:05:57;;;;;;;21.5;18;;;;;;;2.84;100;93652.95;;;;
2019/11/27 02:06:58;;;;;;;21.5;18;;;;;;;2.84;100;93652.95;;;;
2019/11/27 02:07:59;;;;;;;21.5;18;;;;;;;2.84;100;93652.95;;;;
2019/11/27 02:09:00;;;;;;;21.5;18;;;;;;;2.84;100;93652.95;;;;
2019/11/27 02:10:05;;;;;;;21.5;18;;;;;;;2.84;100;93652.95;;;;
2019/11/27 02:11:07;;;;;;;21.5;18;;;;;;;2.84;100;93652.95;;;;
2019/11/27 02:13:11;;;;;;;21.5;18;;;;;;;2.84;100;93652.95;;;;
2019/11/27 02:14:12;;;;;;;18.65;15.9;;;;;;;2.8;100;93637.13;;;;
2019/11/27 02:15:14;;;;;;;18.65;15.9;;;;;;;2.8;100;93637.13;;;;
2019/11/27 02:16:15;;;;;;;18.65;15.9;;;;;;;2.8;100;93637.13;;;;
2019/11/27 02:17:16;;;;;;;18.65;15.9;;;;;;;2.8;100;93637.13;;;;
2019/11/27 02:18:17;;;;;;;18.65;15.9;;;;;;;2.8;100;93637.13;;;;
2019/11/27 02:19:19;;;;;;;18.65;15.9;;;;;;;2.8;100;93637.13;;;;
2019/11/27 02:20:20;;;;;;;18.65;15.9;;;;;;;2.8;100;93637.13;;;;
2019/11/27 02:21:21;;;;;;;18.65;15.9;;;;;;;2.8;100;93637.13;;;;
2019/11/27 02:22:22;;;;;;;18.65;15.9;;;;;;;2.8;100;93637.13;;;;
2019/11/27 02:23:23;;;;;;;18.65;15.9;;;;;;;2.8;100;93637.13;;;;
2019/11/27 02:24:24;;;;;;;18.9;15.3;;;;;;;2.75;100;93636.49;;;;
2019/11/27 02:25:26;;;;;;;18.9;15.3;;;;;;;2.75;100;93636.49;;;;
2019/11/27 02:26:27;;;;;;;18.9;15.3;;;;;;;2.75;100;93636.49;;;;
2019/11/27 02:27:28;;;;;;;18.9;15.3;;;;;;;2.75;100;93636.49;;;;
2019/11/27 02:28:29;;;;;;;18.9;15.3;;;;;;;2.75;100;93636.49;;;;
2019/11/27 02:29:30;;;;;;;18.9;15.3;;;;;;;2.75;100;93636.49;;;;
2019/11/27 02:30:32;;;;;;;18.9;15.3;;;;;;;2.75;100;93636.49;;;;
2019/11/27 02:31:34;;;;;;;18.9;15.3;;;;;;;2.75;100;93636.49;;;;
2019/11/27 02:35:56;;;;;;;19.05;15.8;;;;;;;2.63;100;93609.4;;;;
2019/11/27 02:36:58;;;;;;;19.05;15.8;;;;;;;2.63;100;93609.4;;;;
2019/11/27 02:38:00;;;;;;;19.05;15.8;;;;;;;2.63;100;93609.4;;;;
2019/11/27 02:39:02;;;;;;;19.05;15.8;;;;;;;2.63;100;93609.4;;;;
2019/11/27 02:40:05;;;;;;;19.05;15.8;;;;;;;2.63;100;93609.4;;;;
2019/11/27 02:41:06;;;;;;;19.05;15.8;;;;;;;2.63;100;93609.4;;;;
2019/11/27 02:42:07;;;;;;;19.05;15.8;;;;;;;2.63;100;93609.4;;;;
2019/11/27 02:43:08;;;;;;;19.05;15.8;;;;;;;2.63;100;93609.4;;;;
2019/11/27 02:44:10;;;;;;;19.05;15.8;;;;;;;2.63;100;93609.4;;;;
2019/11/27 02:45:11;;;;;;;0;0;;;;;;;0;0;0;;;;
2019/11/27 02:46:12;;;;;;;0;0;;;;;;;0;0;0;;;;
2019/11/27 02:47:13;;;;;;;0;0;;;;;;;0;0;0;;;;
2019/11/27 02:48:14;;;;;;;0;0;;;;;;;0;0;0;;;;
2019/11/27 02:49:16;;;;;;;0;0;;;;;;;0;0;0;;;;
2019/11/27 02:50:17;;;;;;;0;0;;;;;;;0;0;0;;;;
2019/11/27 02:51:18;;;;;;;0;0;;;;;;;0;0;0;;;;
2019/11/27 02:52:20;;;;;;;0;0;;;;;;;0;0;0;;;;
2019/11/27 02:53:23;;;;;;;0;0;;;;;;;0;0;0;;;;
2019/11/27 02:54:24;;;;;;;0;0;;;;;;;0;0;0;;;;
2019/11/27 02:55:31;;;;;;;0;0;;;;;;;0;0;0;;;;
2019/11/27 02:56:36;;;;;;;0;0;;;;;;;0;0;0;;;;
2019/11/27 02:57:37;;;;;;;0;0;;;;;;;0;0;0;;;;
2019/11/27 02:58:38;;;;;;;0;0;;;;;;;0;0;0;;;;
2019/11/27 02:59:40;;;;;;;0;0;;;;;;;0;0;0;;;;
2019/11/27 03:00:41;;;;;;;0;0;;;;;;;0;0;0;;;;
2019/11/27 03:01:42;;;;;;;0;0;;;;;;;0;0;0;;;;
2019/11/27 03:02:43;;;;;;;0;0;;;;;;;0;0;0;;;;
2019/11/27 03:03:44;;;;;;;0;0;;;;;;;0;0;0;;;;
2019/11/27 03:04:45;;;;;;;0;0;;;;;;;0;0;0;;;;
2019/11/27 03:05:47;;;;;;;0;0;;;;;;;0;0;0;;;;
2019/11/27 03:06:49;;;;;;;0;0;;;;;;;0;0;0;;;;
2019/11/27 03:07:51;;;;;;;0;0;;;;;;;0;0;0;;;;
2019/11/27 03:08:52;;;;;;;0;0;;;;;;;0;0;0;;;;
2019/11/27 03:09:53;;;;;;;0;0;;;;;;;0;0;0;;;;
2019/11/27 03:11:20;;;;;;;0;0;;;;;;;0;0;0;;;;
2019/11/27 03:12:21;;;;;;;0;0;;;;;;;0;0;0;;;;
2019/11/27 03:13:23;;;;;;;0;0;;;;;;;0;0;0;;;;
2019/11/27 03:14:24;;;;;;;0;0;;;;;;;0;0;0;;;;
2019/11/27 03:15:25;;;;;;;18.5;15.25;;;;;;;2.35;100;93530.67;;;;
2019/11/27 03:17:01;;;;;;;18.5;15.25;;;;;;;2.35;100;93530.67;;;;
2019/11/27 03:18:48;;;;;;;18.5;15.25;;;;;;;2.35;100;93530.67;;;;
2019/11/27 03:19:49;;;;;;;18.5;15.25;;;;;;;2.35;100;93530.67;;;;
2019/11/27 03:20:50;;;;;;;18.5;15.25;;;;;;;2.35;100;93530.67;;;;
2019/11/27 03:21:53;;;;;;;18.5;15.25;;;;;;;2.35;100;93530.67;;;;
2019/11/27 03:22:54;;;;;;;18.5;15.25;;;;;;;2.35;100;93530.67;;;;
2019/11/27 03:23:55;;;;;;;18.5;15.25;;;;;;;2.35;100;93530.67;;;;
2019/11/27 03:24:56;;;;;;;18.5;15.25;;;;;;;2.35;100;93530.67;;;;
2019/11/27 03:26:03;;;;;;;0;0;;;;;;;0;0;0;;;;
2019/11/27 03:27:07;;;;;;;0;0;;;;;;;0;0;0;;;;
2019/11/27 03:33:18;;;;;;;0;0;;;;;;;0;0;0;;;;
2019/11/27 03:34:21;;;;;;;0;0;;;;;;;0;0;0;;;;
2019/11/27 03:35:23;;;;;;;0;0;;;;;;;0;0;0;;;;
2019/11/27 03:36:24;;;;;;;0;0;;;;;;;0;0;0;;;;
2019/11/27 03:37:25;;;;;;;0;0;;;;;;;0;0;0;;;;
2019/11/27 03:38:27;;;;;;;0;0;;;;;;;0;0;0;;;;
2019/11/27 03:39:28;;;;;;;0;0;;;;;;;0;0;0;;;;
2019/11/27 03:40:29;;;;;;;0;0;;;;;;;0;0;0;;;;
2019/11/27 03:42:05;;;;;;;0;0;;;;;;;0;0;0;;;;
2019/11/27 03:50:09;;;;;;;0;0;;;;;;;0;0;0;;;;
2019/11/27 03:54:03;;;;;;;0;0;;;;;;;0;0;0;;;;
2019/11/27 03:55:08;;;;;;;0;0;;;;;;;0;0;0;;;;
2019/11/27 03:57:04;;;;;;;0;0;;;;;;;0;0;0;;;;
2019/11/27 03:59:27;;;;;;;0;0;;;;;;;0;0;0;;;;
2019/11/27 04:00:37;;;;;;;0;0;;;;;;;0;0;0;;;;
2019/11/27 04:02:42;;;;;;;0;0;;;;;;;0;0;0;;;;
2019/11/27 04:03:43;;;;;;;0;0;;;;;;;0;0;0;;;;
2019/11/27 04:04:44;;;;;;;0;0;;;;;;;0;0;0;;;;
2019/11/27 04:05:47;;;;;;;0;0;;;;;;;0;0;0;;;;
2019/11/27 04:06:48;;;;;;;0;0;;;;;;;0;0;0;;;;
2019/11/27 04:07:50;;;;;;;0;0;;;;;;;0;0;0;;;;
2019/11/27 04:08:52;;;;;;;0;0;;;;;;;0;0;0;;;;
2019/11/27 04:09:55;;;;;;;0;0;;;;;;;0;0;0;;;;
2019/11/27 04:10:56;;;;;;;0;0;;;;;;;0;0;0;;;;
2019/11/27 04:11:58;;;;;;;0;0;;;;;;;0;0;0;;;;
2019/11/27 04:13:06;;;;;;;0;0;;;;;;;0;0;0;;;;
2019/11/27 04:14:07;;;;;;;0;0;;;;;;;0;0;0;;;;
2019/11/27 04:21:22;;;;;;;0;0;;;;;;;0;0;0;;;;
2019/11/27 04:24:04;;;;;;;0;0;;;;;;;0;0;0;;;;
2019/11/27 04:29:54;;;;;;;0;0;;;;;;;0;0;0;;;;
2019/11/27 04:31:51;;;;;;;0;0;;;;;;;0;0;0;;;;
2019/11/27 04:33:33;;;;;;;0;0;;;;;;;0;0;0;;;;
2019/11/27 04:35:41;;;;;;;0;0;;;;;;;0;0;0;;;;
2019/11/27 04:36:47;;;;;;;0;0;;;;;;;0;0;0;;;;
2019/11/27 04:38:19;;;;;;;0;0;;;;;;;0;0;0;;;;
2019/11/27 04:39:21;;;;;;;0;0;;;;;;;0;0;0;;;;
2019/11/27 04:40:22;;;;;;;0;0;;;;;;;0;0;0;;;;
2019/11/27 04:41:23;;;;;;;0;0;;;;;;;0;0;0;;;;
2019/11/27 04:42:24;;;;;;;0;0;;;;;;;0;0;0;;;;
2019/11/27 04:43:25;;;;;;;0;0;;;;;;;0;0;0;;;;
2019/11/27 04:44:27;;;;;;;0;0;;;;;;;0;0;0;;;;
2019/11/27 04:45:28;;;;;;;0;0;;;;;;;0;0;0;;;;
2019/11/27 04:46:29;;;;;;;0;0;;;;;;;0;0;0;;;;
2019/11/27 04:47:31;;;;;;;0;0;;;;;;;0;0;0;;;;
2019/11/27 04:48:32;;;;;;;0;0;;;;;;;0;0;0;;;;
2019/11/27 04:49:58;;;;;;;0;0;;;;;;;0;0;0;;;;
2019/11/27 04:51:03;;;;;;;0;0;;;;;;;0;0;0;;;;
2019/11/27 04:55:38;;;;;;;0;0;;;;;;;0;0;0;;;;
2019/11/27 05:04:26;;;;;;;0;0;;;;;;;0;0;0;;;;
2019/11/27 05:07:21;;;;;;;0;0;;;;;;;0;0;0;;;;
2019/11/27 05:08:36;;;;;;;0;0;;;;;;;0;0;0;;;;
2019/11/27 05:25:45;;;;;;;0;0;;;;;;;0;0;0;;;;
2019/11/27 05:35:01;;;;;;;0;0;;;;;;;0;0;0;;;;
2019/11/27 05:42:37;;;;;;;0;0;;;;;;;0;0;0;;;;
2019/11/27 05:44:52;;;;;;;0;0;;;;;;;0;0;0;;;;
2019/11/27 05:45:53;;;;;;;0;0;;;;;;;0;0;0;;;;
2019/11/27 05:46:55;;;;;;;0;0;;;;;;;0;0;0;;;;
2019/11/27 05:47:56;;;;;;;0;0;;;;;;;0;0;0;;;;
2019/11/27 05:48:57;;;;;;;0;0;;;;;;;0;0;0;;;;
2019/11/27 05:49:58;;;;;;;0;0;;;;;;;0;0;0;;;;
2019/11/27 05:51:00;;;;;;;0;0;;;;;;;0;0;0;;;;
2019/11/27 05:52:02;;;;;;;0;0;;;;;;;0;0;0;;;;
2019/11/27 05:53:03;;;;;;;0;0;;;;;;;0;0;0;;;;
2019/11/27 05:57:52;;;;;;;0;0;;;;;;;0;0;0;;;;
2019/11/27 06:07:07;;;;;;;0;0;;;;;;;0;0;0;;;;
2019/11/27 06:09:13;;;;;;;0;0;;;;;;;0;0;0;;;;
2019/11/27 06:14:43;;;;;;;0;0;;;;;;;0;0;0;;;;
2019/11/27 06:22:25;;;;;;;0;0;;;;;;;0;0;0;;;;
2019/11/27 06:31:47;;;;;;;0;0;;;;;;;0;0;0;;;;
2019/11/27 06:38:03;;;;;;;0;0;;;;;;;0;0;0;;;;
2019/11/27 06:39:04;;;;;;;0;0;;;;;;;0;0;0;;;;
2019/11/27 06:44:29;;;;;;;0;0;;;;;;;0;0;0;;;;
2019/11/27 06:53:02;;;;;;;0;0;;;;;;;0;0;0;;;;
2019/11/27 06:58:47;;;;;;;0;0;;;;;;;0;0;0;;;;
2019/11/27 07:02:45;;;;;;;0;0;;;;;;;0;0;0;;;;
2019/11/27 07:04:33;;;;;;;0;0;;;;;;;0;0;0;;;;
2019/11/27 07:06:38;;;;;;;0;0;;;;;;;0;0;0;;;;
2019/11/27 07:07:39;;;;;;;0;0;;;;;;;0;0;0;;;;
2019/11/27 07:12:58;;;;;;;0;0;;;;;;;0;0;0;;;;
2019/11/27 07:14:01;;;;;;;0;0;;;;;;;0;0;0;;;;
2019/11/27 07:23:16;;;;;;;0;0;;;;;;;0;0;0;;;;
2019/11/27 07:29:02;;;;;;;0;0;;;;;;;0;0;0;;;;
2019/11/27 07:30:03;;;;;;;0;0;;;;;;;0;0;0;;;;
2019/11/27 07:31:05;;;;;;;0;0;;;;;;;0;0;0;;;;
2019/11/27 07:32:06;;;;;;;0;0;;;;;;;0;0;0;;;;
2019/11/27 07:37:14;;;;;;;0;0;;;;;;;0;0;0;;;;
2019/11/27 07:38:15;;;;;;;0;0;;;;;;;0;0;0;;;;
2019/11/27 07:39:17;;;;;;;0;0;;;;;;;0;0;0;;;;
2019/11/27 07:40:23;;;;;;;0;0;;;;;;;0;0;0;;;;
2019/11/27 07:42:01;;;;;;;0;0;;;;;;;0;0;0;;;;
2019/11/27 07:43:04;;;;;;;0;0;;;;;;;0;0;0;;;;
2019/11/27 07:44:06;;;;;;;0;0;;;;;;;0;0;0;;;;
2019/11/27 07:45:07;;;;;;;0;0;;;;;;;0;0;0;;;;
2019/11/27 07:46:08;;;;;;;0;0;;;;;;;0;0;0;;;;
2019/11/27 07:47:09;;;;;;;0;0;;;;;;;0;0;0;;;;
2019/11/27 07:48:11;;;;;;;0;0;;;;;;;0;0;0;;;;
2019/11/27 07:49:13;;;;;;;0;0;;;;;;;0;0;0;;;;
2019/11/27 07:50:14;;;;;;;0;0;;;;;;;0;0;0;;;;
2019/11/27 07:51:15;;;;;;;0;0;;;;;;;0;0;0;;;;
2019/11/27 07:52:56;;;;;;;0;0;;;;;;;0;0;0;;;;
2019/11/27 07:53:57;;;;;;;0;0;;;;;;;0;0;0;;;;
2019/11/27 07:54:59;;;;;;;0;0;;;;;;;0;0;0;;;;
2019/11/27 07:56:00;;;;;;;0;0;;;;;;;0;0;0;;;;
2019/11/27 07:57:01;;;;;;;0;0;;;;;;;0;0;0;;;;
2019/11/27 07:58:04;;;;;;;0;0;;;;;;;0;0;0;;;;
2019/11/27 07:59:06;;;;;;;0;0;;;;;;;0;0;0;;;;
2019/11/27 08:00:07;;;;;;;0;0;;;;;;;0;0;0;;;;
2019/11/27 08:01:10;;;;;;;0;0;;;;;;;0;0;0;;;;
2019/11/27 08:02:11;;;;;;;0;0;;;;;;;0;0;0;;;;
2019/11/27 08:03:15;;;;;;;0;0;;;;;;;0;0;0;;;;
2019/11/27 08:04:16;;;;;;;0;0;;;;;;;0;0;0;;;;
2019/11/27 08:05:17;;;;;;;0;0;;;;;;;0;0;0;;;;
2019/11/27 08:06:19;;;;;;;0;0;;;;;;;0;0;0;;;;
2019/11/27 08:07:20;;;;;;;0;0;;;;;;;0;0;0;;;;
2019/11/27 08:08:21;;;;;;;0;0;;;;;;;0;0;0;;;;
2019/11/27 08:09:22;;;;;;;0;0;;;;;;;0;0;0;;;;
2019/11/27 08:10:26;;;;;;;0;0;;;;;;;0;0;0;;;;
2019/11/27 08:11:28;;;;;;;0;0;;;;;;;0;0;0;;;;
2019/11/27 08:12:41;;;;;;;0;0;;;;;;;0;0;0;;;;
2019/11/27 08:13:49;;;;;;;0;0;;;;;;;0;0;0;;;;
2019/11/27 08:16:08;;;;;;;0;0;;;;;;;0;0;0;;;;
2019/11/27 08:18:33;;;;;;;0;0;;;;;;;0;0;0;;;;
2019/11/27 08:22:08;;;;;;;0;0;;;;;;;0;0;0;;;;
2019/11/27 08:30:00;;;;;;;0;0;;;;;;;0;0;0;;;;
2019/11/27 08:32:10;;;;;;;0;0;;;;;;;0;0;0;;;;
2019/11/27 08:35:01;;;;;;;0;0;;;;;;;0;0;0;;;;
2019/11/27 08:37:14;;;;;;;0;0;;;;;;;0;0;0;;;;
2019/11/27 08:39:20;;;;;;;0;0;;;;;;;0;0;0;;;;
2019/11/27 08:43:09;;;;;;;0;0;;;;;;;0;0;0;;;;
2019/11/27 08:45:36;;;;;;;0;0;;;;;;;0;0;0;;;;
2019/11/27 08:46:42;;;;;;;0;0;;;;;;;0;0;0;;;;
2019/11/27 08:48:24;;;;;;;0;0;;;;;;;0;0;0;;;;
2019/11/27 08:49:25;;;;;;;0;0;;;;;;;0;0;0;;;;
2019/11/27 08:54:35;;;;;;;0;0;;;;;;;0;0;0;;;;
2019/11/27 08:55:36;;;;;;;0;0;;;;;;;0;0;0;;;;
2019/11/27 08:57:50;;;;;;;0;0;;;;;;;0;0;0;;;;
2019/11/27 09:01:14;;;;;;;0;0;;;;;;;0;0;0;;;;
2019/11/27 09:02:15;;;;;;;0;0;;;;;;;0;0;0;;;;
2019/11/27 09:04:21;;;;;;;0;0;;;;;;;0;0;0;;;;
2019/11/27 09:09:29;;;;;;;0;0;;;;;;;0;0;0;;;;
2019/11/27 09:11:02;;;;;;;0;0;;;;;;;0;0;0;;;;
2019/11/27 09:12:04;;;;;;;0;0;;;;;;;0;0;0;;;;
2019/11/27 09:13:05;;;;;;;0;0;;;;;;;0;0;0;;;;
2019/11/27 09:14:08;;;;;;;0;0;;;;;;;0;0;0;;;;
2019/11/27 09:15:59;;;;;;;0;0;;;;;;;0;0;0;;;;
2019/11/27 09:22:10;;;;;;;0;0;;;;;;;0;0;0;;;;
2019/11/27 09:23:11;;;;;;;0;0;;;;;;;0;0;0;;;;
2019/11/27 09:24:12;;;;;;;0;0;;;;;;;0;0;0;;;;
2019/11/27 09:25:13;;;;;;;0;0;;;;;;;0;0;0;;;;
2019/11/27 09:26:14;;;;;;;0;0;;;;;;;0;0;0;;;;
2019/11/27 09:27:16;;;;;;;0;0;;;;;;;0;0;0;;;;
2019/11/27 09:30:45;;;;;;;0;0;;;;;;;0;0;0;;;;
2019/11/27 09:40:00;;;;;;;0;0;;;;;;;0;0;0;;;;
2019/11/27 09:48:01;;;;;;;0;0;;;;;;;0;0;0;;;;
2019/11/27 09:49:02;;;;;;;0;0;;;;;;;0;0;0;;;;
2019/11/27 09:51:08;;;;;;;0;0;;;;;;;0;0;0;;;;
2019/11/27 09:53:09;;;;;;;0;0;;;;;;;0;0;0;;;;
2019/11/27 09:54:10;;;;;;;0;0;;;;;;;0;0;0;;;;
2019/11/27 09:55:11;;;;;;;0;0;;;;;;;0;0;0;;;;
2019/11/27 09:56:16;;;;;;;0;0;;;;;;;0;0;0;;;;
2019/11/27 09:57:17;;;;;;;0;0;;;;;;;0;0;0;;;;
2019/11/27 09:58:18;;;;;;;0;0;;;;;;;0;0;0;;;;
2019/11/27 09:59:19;;;;;;;0;0;;;;;;;0;0;0;;;;
2019/11/27 10:00:20;;;;;;;0;0;;;;;;;0;0;0;;;;
2019/11/27 10:01:22;;;;;;;0;0;;;;;;;0;0;0;;;;
2019/11/27 10:02:24;;;;;;;0;0;;;;;;;0;0;0;;;;
2019/11/27 10:04:26;;;;;;;0;0;;;;;;;0;0;0;;;;
2019/11/27 10:08:11;;;;;;;0;0;;;;;;;0;0;0;;;;
2019/11/27 10:10:18;;;;;;;0;0;;;;;;;0;0;0;;;;
2019/11/27 10:18:33;;;;;;;0;0;;;;;;;0;0;0;;;;
2019/11/27 10:22:01;;;;;;;0;0;;;;;;;0;0;0;;;;
2019/11/27 10:23:59;;;;;;;0;0;;;;;;;0;0;0;;;;
2019/11/27 10:27:41;;;;;;;0;0;;;;;;;0;0;0;;;;
2019/11/27 10:28:42;;;;;;;0;0;;;;;;;0;0;0;;;;
2019/11/27 10:29:43;;;;;;;0;0;;;;;;;0;0;0;;;;
2019/11/27 10:31:48;;;;;;;0;0;;;;;;;0;0;0;;;;
2019/11/27 10:32:49;;;;;;;0;0;;;;;;;0;0;0;;;;
2019/11/27 10:33:51;;;;;;;0;0;;;;;;;0;0;0;;;;
2019/11/27 10:34:52;;;;;;;0;0;;;;;;;0;0;0;;;;
2019/11/27 10:40:51;;;;;;;0;0;;;;;;;0;0;0;;;;
2019/11/27 10:42:00;;;;;;;0;0;;;;;;;0;0;0;;;;
2019/11/27 10:51:16;;;;;;;0;0;;;;;;;0;0;0;;;;
2019/11/27 10:52:19;;;;;;;0;0;;;;;;;0;0;0;;;;
2019/11/27 10:53:20;;;;;;;0;0;;;;;;;0;0;0;;;;
2019/11/27 10:54:39;;;;;;;0;0;;;;;;;0;0;0;;;;
2019/11/27 10:55:40;;;;;;;0;0;;;;;;;0;0;0;;;;
2019/11/27 10:56:41;;;;;;;0;0;;;;;;;0;0;0;;;;
2019/11/27 10:57:43;;;;;;;0;0;;;;;;;0;0;0;;;;
2019/11/27 10:58:44;;;;;;;0;0;;;;;;;0;0;0;;;;
2019/11/27 10:59:45;;;;;;;0;0;;;;;;;0;0;0;;;;
2019/11/27 11:00:46;;;;;;;0;0;;;;;;;0;0;0;;;;
2019/11/27 11:01:47;;;;;;;0;0;;;;;;;0;0;0;;;;
2019/11/27 11:02:48;;;;;;;0;0;;;;;;;0;0;0;;;;
2019/11/27 11:03:50;;;;;;;0;0;;;;;;;0;0;0;;;;
2019/11/27 11:04:53;;;;;;;0;0;;;;;;;0;0;0;;;;
2019/11/27 11:05:54;;;;;;;0;0;;;;;;;0;0;0;;;;
2019/11/27 11:06:55;;;;;;;0;0;;;;;;;0;0;0;;;;
2019/11/27 11:07:56;;;;;;;0;0;;;;;;;0;0;0;;;;
2019/11/27 11:08:58;;;;;;;0;0;;;;;;;0;0;0;;;;
2019/11/27 11:09:59;;;;;;;0;0;;;;;;;0;0;0;;;;
2019/11/27 11:11:23;;;;;;;0;0;;;;;;;0;0;0;;;;
2019/11/27 11:12:24;;;;;;;0;0;;;;;;;0;0;0;;;;
2019/11/27 11:14:04;;;;;;;0;0;;;;;;;0;0;0;;;;
2019/11/27 11:15:05;;;;;;;0;0;;;;;;;0;0;0;;;;
2019/11/27 11:16:06;;;;;;;0;0;;;;;;;0;0;0;;;;
2019/11/27 11:18:04;;;;;;;0;0;;;;;;;0;0;0;;;;
2019/11/27 11:19:16;;;;;;;0;0;;;;;;;0;0;0;;;;
2019/11/27 11:24:24;;;;;;;0;0;;;;;;;0;0;0;;;;
2019/11/27 11:25:25;;;;;;;0;0;;;;;;;0;0;0;;;;
2019/11/27 11:26:27;;;;;;;0;0;;;;;;;0;0;0;;;;
2019/11/27 11:28:23;;;;;;;0;0;;;;;;;0;0;0;;;;
2019/11/27 11:29:24;;;;;;;0;0;;;;;;;0;0;0;;;;
2019/11/27 11:30:25;;;;;;;0;0;;;;;;;0;0;0;;;;
2019/11/27 11:31:45;;;;;;;0;0;;;;;;;0;0;0;;;;
2019/11/27 11:32:47;;;;;;;0;0;;;;;;;0;0;0;;;;
2019/11/27 11:33:51;;;;;;;0;0;;;;;;;0;0;0;;;;
2019/11/27 11:34:52;;;;;;;0;0;;;;;;;0;0;0;;;;
2019/11/27 11:36:26;;;;;;;0;0;;;;;;;0;0;0;;;;
2019/11/27 11:39:13;;;;;;;0;0;;;;;;;0;0;0;;;;
2019/11/27 11:44:50;;;;;;;0;0;;;;;;;0;0;0;;;;
2019/11/27 11:50:03;;;;;;;0;0;;;;;;;0;0;0;;;;
2019/11/27 11:51:18;;;;;;;0;0;;;;;;;0;0;0;;;;
2019/11/27 11:52:19;;;;;;;0;0;;;;;;;0;0;0;;;;
2019/11/27 11:58:48;;;;;;;7.749999;5.749999;;;;;;;9.88;98.05762;93648.81;;;;
2019/11/27 12:08:03;;;;;;;4.6;4.200001;;;;;;;10.59;97.4502;93638.3;;;;
2019/11/27 12:09:05;;;;;;;4.6;4.200001;;;;;;;10.59;97.4502;93638.3;;;;
2019/11/27 12:11:09;;;;;;;4.6;4.200001;;;;;;;10.59;97.4502;93638.3;;;;
2019/11/27 12:13:45;;;;;;;4.6;4.200001;;;;;;;10.59;97.4502;93638.3;;;;
2019/11/27 12:14:46;;;;;;;4.6;4.200001;;;;;;;10.59;97.4502;93638.3;;;;
2019/11/27 12:15:47;;;;;;;3.9;2.9;;;;;;;10.82;97.10938;93608.76;;;;
2019/11/27 12:19:42;;;;;;;3.9;2.9;;;;;;;10.82;97.10938;93608.76;;;;
2019/11/27 12:20:43;;;;;;;3.9;2.9;;;;;;;10.82;97.10938;93608.76;;;;
2019/11/27 12:21:52;;;;;;;3.9;2.9;;;;;;;10.82;97.10938;93608.76;;;;
2019/11/27 12:22:54;;;;;;;3.9;2.9;;;;;;;10.82;97.10938;93608.76;;;;
2019/11/27 12:23:55;;;;;;;3.9;2.9;;;;;;;10.82;97.10938;93608.76;;;;
2019/11/27 12:24:57;;;;;;;3.9;2.9;;;;;;;10.82;97.10938;93608.76;;;;
2019/11/27 12:25:58;;;;;;;3.9;2.9;;;;;;;10.82;97.10938;93608.76;;;;
2019/11/27 12:26:59;;;;;;;4.1;2.5;;;;;;;10.81;97.11621;93594.58;;;;
2019/11/27 12:28:00;;;;;;;4.1;2.5;;;;;;;10.81;97.11621;93594.58;;;;
2019/11/27 12:29:01;;;;;;;4.1;2.5;;;;;;;10.81;97.11621;93594.58;;;;
2019/11/27 12:30:04;;;;;;;4.1;2.5;;;;;;;10.81;97.11621;93594.58;;;;
2019/11/27 12:31:54;;;;;;;4.1;2.5;;;;;;;10.81;97.11621;93594.58;;;;
2019/11/27 12:32:55;;;;;;;4.1;2.5;;;;;;;10.81;97.11621;93594.58;;;;